Time;durP1;ratioP1;P1;durP2;ratioP2;P2;SDS_P1;SDS_P2;PMS_P1;PMS_P2;Temp;Humidity;BMP_temperature;BMP_pressure;BME280_temperature;BME280_humidity;BME280_pressure;Samples;Min_cycle;Max_cycle;Signal;HPM_P1;HPM_P2
2021/09/18 00:08:47;;;;;;;15.07;11.43;;;12.50;71.90;;;;;;4918428;29;20523;-90
2021/09/18 00:14:39;;;;;;;14.75;11.27;;;12.50;72.20;;;;;;4918508;29;20392;-89
2021/09/18 00:20:29;;;;;;;14.85;10.75;;;12.50;72.30;;;;;;4918071;29;20027;-89
2021/09/18 00:26:17;;;;;;;17.42;12.23;;;12.50;72.50;;;;;;4918160;29;20055;-88
2021/09/18 00:32:06;;;;;;;19.05;13.05;;;12.40;72.60;;;;;;4918522;29;20035;-89
2021/09/18 00:37:54;;;;;;;17.55;12.43;;;12.40;72.80;;;;;;4918284;29;20101;-89
2021/09/18 00:43:54;;;;;;;16.00;11.85;;;12.40;73.10;;;;;;4918222;29;20091;-90
2021/09/18 00:49:43;;;;;;;22.15;15.60;;;12.50;73.50;;;;;;4917800;29;20105;-88
2021/09/18 00:55:33;;;;;;;18.50;13.88;;;12.50;73.80;;;;;;4917694;29;20107;-88
2021/09/18 01:01:21;;;;;;;18.00;12.25;;;12.60;74.00;;;;;;4918200;29;20031;-89
2021/09/18 01:11:11;;;;;;;15.82;11.65;;;12.70;74.20;;;;;;4918834;29;20504;-91
2021/09/18 01:17:00;;;;;;;17.27;12.05;;;12.80;74.40;;;;;;4918144;29;20039;-90
2021/09/18 01:22:50;;;;;;;16.75;13.13;;;12.80;74.40;;;;;;4921403;29;20032;-86
2021/09/18 01:28:40;;;;;;;18.35;13.00;;;12.80;74.20;;;;;;4917814;29;20580;-90
2021/09/18 01:34:29;;;;;;;14.57;11.63;;;12.80;74.30;;;;;;4917617;29;20040;-90
2021/09/18 01:40:22;;;;;;;18.60;13.27;;;12.70;74.50;;;;;;4921233;29;20099;-92
2021/09/18 01:46:11;;;;;;;17.95;13.13;;;12.70;74.80;;;;;;4921130;29;20048;-91
2021/09/18 01:52:07;;;;;;;17.52;13.38;;;12.80;74.90;;;;;;4921262;29;20035;-91
2021/09/18 01:57:58;;;;;;;16.00;11.95;;;12.80;75.00;;;;;;4920952;29;20499;-90
2021/09/18 02:03:47;;;;;;;16.55;11.73;;;12.80;75.20;;;;;;4920881;29;20104;-91
2021/09/18 02:13:38;;;;;;;15.38;11.27;;;12.90;75.50;;;;;;4920743;29;20039;-90
2021/09/18 02:19:27;;;;;;;14.55;10.73;;;13.00;75.60;;;;;;4920560;29;20050;-90
2021/09/18 02:25:17;;;;;;;16.33;11.13;;;13.00;75.60;;;;;;4920247;29;20075;-90
2021/09/18 02:31:06;;;;;;;16.50;12.35;;;13.00;75.60;;;;;;4920242;29;20108;-89
2021/09/18 02:36:55;;;;;;;15.63;11.32;;;13.00;75.60;;;;;;4920182;29;20052;-90
2021/09/18 02:42:46;;;;;;;17.10;10.82;;;12.90;75.50;;;;;;4920234;29;20528;-90
2021/09/18 02:48:35;;;;;;;16.50;11.70;;;12.80;75.20;;;;;;4919929;29;20437;-90
2021/09/18 02:54:23;;;;;;;17.88;12.45;;;12.70;75.10;;;;;;4922399;29;20511;-89
2021/09/18 03:00:14;;;;;;;18.60;12.57;;;12.60;75.20;;;;;;4919891;29;20123;-89
2021/09/18 03:06:02;;;;;;;20.45;13.15;;;12.50;75.40;;;;;;4919561;29;20040;-88
2021/09/18 03:15:51;;;;;;;20.60;13.90;;;12.40;75.80;;;;;;4919591;29;20061;-90
2021/09/18 03:21:40;;;;;;;20.30;14.20;;;12.40;76.20;;;;;;4919543;29;20088;-89
2021/09/18 03:27:29;;;;;;;18.88;13.30;;;12.50;76.60;;;;;;4918954;29;20044;-88
2021/09/18 03:33:17;;;;;;;16.85;12.05;;;12.60;76.90;;;;;;4919101;29;20038;-89
2021/09/18 03:39:06;;;;;;;16.13;11.73;;;12.70;77.10;;;;;;4919088;29;20163;-89
2021/09/18 03:44:55;;;;;;;13.90;10.25;;;12.80;77.10;;;;;;4918858;29;20031;-89
2021/09/18 03:50:45;;;;;;;14.85;10.63;;;12.80;77.00;;;;;;4918606;29;20039;-88
2021/09/18 03:56:34;;;;;;;14.45;10.70;;;12.80;76.70;;;;;;4918680;29;20095;-89
2021/09/18 04:02:28;;;;;;;13.93;10.23;;;12.80;76.50;;;;;;4918777;29;20499;-90
2021/09/18 04:08:19;;;;;;;15.35;11.80;;;12.70;76.40;;;;;;4918516;29;20059;-90
2021/09/18 04:18:06;;;;;;;15.77;11.05;;;12.40;75.90;;;;;;4918464;29;20071;-88
2021/09/18 04:23:58;;;;;;;22.08;14.82;;;12.30;76.20;;;;;;4918302;29;20113;-89
2021/09/18 04:29:47;;;;;;;22.40;14.25;;;12.20;76.30;;;;;;4922897;29;20071;-88
2021/09/18 04:35:36;;;;;;;23.10;14.27;;;12.10;76.10;;;;;;4918275;29;20507;-88
2021/09/18 04:41:40;;;;;;;23.27;15.68;;;12.00;76.20;;;;;;4918248;29;20180;-88
2021/09/18 04:47:29;;;;;;;19.45;13.93;;;11.80;76.20;;;;;;4918237;29;20147;-90
2021/09/18 04:53:19;;;;;;;20.60;14.15;;;11.80;76.40;;;;;;4918165;29;20039;-90
2021/09/18 04:59:08;;;;;;;22.63;15.18;;;11.70;76.50;;;;;;4917915;29;20054;-88
2021/09/18 05:04:56;;;;;;;22.25;15.68;;;11.60;76.30;;;;;;4918079;29;20372;-88
2021/09/18 05:10:45;;;;;;;24.60;16.23;;;11.50;76.50;;;;;;4921611;29;20503;-89
2021/09/18 05:20:26;;;;;;;23.08;15.50;;;11.50;76.70;;;;;;4923075;29;20466;-95
2021/09/18 05:26:20;;;;;;;35.10;20.70;;;11.50;76.90;;;;;;4922523;29;20586;-95
2021/09/18 05:32:13;;;;;;;41.33;27.52;;;11.60;77.20;;;;;;4922302;29;20036;-96
2021/09/18 05:38:04;;;;;;;42.47;27.55;;;11.70;77.30;;;;;;4936577;29;20059;-96
2021/09/18 05:43:55;;;;;;;38.40;22.00;;;11.80;77.20;;;;;;4922995;29;20042;-96
2021/09/18 05:49:45;;;;;;;31.60;18.90;;;11.90;77.60;;;;;;4922473;29;20389;-96
2021/09/18 05:55:43;;;;;;;31.60;19.73;;;12.00;77.70;;;;;;4945226;29;20027;-90
2021/09/18 07:55:12;;;;;;;19.70;16.50;;;16.10;77.50;;;;;;4899894;29;20093;-85
2021/09/18 08:01:30;;;;;;;20.08;16.48;;;16.40;77.70;;;;;;4899890;29;20059;-85
2021/09/18 08:08:15;;;;;;;;;;;;;;;;;;;;;
2021/09/18 08:14:04;;;;;;;17.45;13.73;;;17.00;77.40;;;;;;4899403;29;20460;-84
2021/09/18 08:19:54;;;;;;;17.40;15.13;;;17.20;77.50;;;;;;4899437;29;20076;-82
2021/09/18 08:48:28;;;;;;;15.27;13.35;;;18.40;76.60;;;;;;4825858;29;20025;-84
2021/09/18 09:42:48;;;;;;;15.23;12.05;;;22.10;72.00;;;;;;4890425;29;20092;-87
2021/09/18 09:48:36;;;;;;;14.98;11.57;;;22.80;72.30;;;;;;4941352;29;20062;-89
2021/09/18 10:08:13;;;;;;;;;;;;;;;;;;;;;
2021/09/18 10:14:31;;;;;;;;;;;;;;;;;;;;;
2021/09/18 10:33:48;;;;;;;13.73;8.68;;;28.20;66.20;;;;;;4839390;23;20043;-86
2021/09/18 10:40:22;;;;;;;13.23;9.40;;;28.30;61.00;;;;;;4902517;29;20039;-84
2021/09/18 11:01:04;;;;;;;13.60;9.73;;;30.00;57.40;;;;;;4843133;29;20424;-84
2021/09/18 11:10:22;;;;;;;13.35;9.75;;;28.30;55.40;;;;;;4824755;23;20122;-84
2021/09/18 11:16:16;;;;;;;12.13;7.68;;;29.70;58.40;;;;;;4916504;27;20052;-88
2021/09/18 11:19:01;;;;;;;10.85;7.40;;;30.80;56.60;;;;;;4919739;29;20023;-90
2021/09/18 11:21:36;;;;;;;10.00;6.38;;;31.50;55.40;;;;;;4929486;29;20060;-91
2021/09/18 11:24:16;;;;;;;10.32;6.50;;;32.20;54.30;;;;;;4910920;29;20028;-90
2021/09/18 11:27:05;;;;;;;10.10;7.13;;;32.80;53.80;;;;;;4925948;29;20074;-84
2021/09/18 11:29:38;;;;;;;10.48;6.35;;;33.60;53.50;;;;;;4908621;29;20032;-86
2021/09/18 11:32:27;;;;;;;10.85;7.15;;;34.30;53.20;;;;;;4929944;29;20032;-88
2021/09/18 11:35:17;;;;;;;10.75;7.35;;;35.10;51.60;;;;;;4925429;29;20036;-88
2021/09/18 11:38:20;;;;;;;9.75;6.35;;;35.60;49.90;;;;;;4920964;29;20047;-89
2021/09/18 11:41:22;;;;;;;10.95;7.65;;;35.90;47.20;;;;;;4920869;29;20079;-88
2021/09/18 11:43:51;;;;;;;10.98;7.45;;;35.10;44.80;;;;;;4907539;29;20029;-88
2021/09/18 11:46:55;;;;;;;11.27;7.65;;;34.10;43.70;;;;;;4921561;29;20408;-87
2021/09/18 11:49:32;;;;;;;;;;;33.40;45.30;;;;;;4922691;29;20088;-86
2021/09/18 11:52:23;;;;;;;;;;;;;;;;;;;;;
2021/09/18 11:55:07;;;;;;;10.52;7.45;;;33.90;44.60;;;;;;4922208;29;20116;-86
2021/09/18 11:57:36;;;;;;;10.23;7.05;;;33.20;42.40;;;;;;4920902;29;20131;-86
2021/09/18 12:00:19;;;;;;;10.88;6.78;;;32.60;42.80;;;;;;4922155;29;20118;-87
2021/09/18 12:03:03;;;;;;;10.90;6.60;;;32.00;42.70;;;;;;4905586;29;20047;-87
2021/09/18 12:05:46;;;;;;;11.02;7.30;;;31.30;42.30;;;;;;4922958;29;20031;-87
2021/09/18 12:08:20;;;;;;;12.65;8.13;;;30.70;42.30;;;;;;4922088;29;20048;-87
2021/09/18 12:10:46;;;;;;;;;;;30.30;42.90;;;;;;4907471;29;20040;-86
2021/09/18 12:13:19;;;;;;;9.93;5.88;;;30.40;44.90;;;;;;4923075;29;19911;-87
2021/09/18 12:15:45;;;;;;;9.70;6.22;;;31.10;46.40;;;;;;4922795;29;20095;-87
2021/09/18 12:18:30;;;;;;;10.65;5.95;;;32.20;44.90;;;;;;4921889;29;20020;-87
2021/09/18 12:21:26;;;;;;;10.70;5.82;;;33.10;43.90;;;;;;4921762;29;20039;-88
2021/09/18 12:24:07;;;;;;;9.38;4.97;;;34.20;43.90;;;;;;4915779;29;20040;-86
2021/09/18 12:26:54;;;;;;;9.57;6.10;;;35.30;43.20;;;;;;4921650;29;20040;-88
2021/09/18 12:29:52;;;;;;;8.63;5.75;;;36.20;42.50;;;;;;4894738;29;20044;-88
2021/09/18 12:33:01;;;;;;;;;;;;;;;;;;;;;
2021/09/18 12:35:45;;;;;;;9.32;5.20;;;37.60;38.20;;;;;;4920308;29;20088;-87
2021/09/18 12:38:31;;;;;;;8.80;4.95;;;36.80;36.30;;;;;;4905602;29;20088;-88
2021/09/18 12:41:05;;;;;;;8.68;5.32;;;36.10;37.10;;;;;;4904742;29;20030;-87
2021/09/18 12:43:39;;;;;;;8.30;5.13;;;35.50;36.20;;;;;;4891657;29;20066;-88
2021/09/18 12:46:16;;;;;;;8.85;5.28;;;35.50;37.80;;;;;;4923517;29;20039;-87
2021/09/18 12:48:57;;;;;;;9.30;5.68;;;35.60;37.00;;;;;;4908504;29;20040;-88
2021/09/18 12:51:37;;;;;;;8.48;5.43;;;35.90;37.20;;;;;;4907754;29;20040;-86
2021/09/18 12:54:17;;;;;;;8.55;5.40;;;36.20;36.80;;;;;;4908597;29;20115;-87
2021/09/18 12:56:52;;;;;;;9.00;5.75;;;36.70;36.50;;;;;;4923374;29;20028;-86
2021/09/18 12:59:24;;;;;;;8.82;4.97;;;37.30;36.10;;;;;;4890322;29;20040;-87
2021/09/18 13:02:33;;;;;;;9.27;5.13;;;36.90;33.90;;;;;;4890555;29;20041;-87
2021/09/18 13:05:29;;;;;;;8.18;4.78;;;36.10;33.40;;;;;;4905925;29;20036;-87
2021/09/18 13:08:01;;;;;;;11.23;5.20;;;34.70;33.00;;;;;;4904835;29;20040;-87
2021/09/18 13:10:27;;;;;;;9.55;5.15;;;33.80;33.50;;;;;;4889472;29;20032;-87
2021/09/18 13:12:55;;;;;;;8.32;5.05;;;33.00;33.90;;;;;;4904712;29;20035;-87
2021/09/18 13:15:20;;;;;;;7.78;4.18;;;32.60;35.60;;;;;;4902700;29;20056;-87
2021/09/18 13:17:58;;;;;;;7.40;4.00;;;33.20;36.90;;;;;;4901344;29;20036;-87
2021/09/18 13:20:31;;;;;;;8.80;4.85;;;34.10;36.90;;;;;;4902193;29;20021;-86
2021/09/18 13:23:06;;;;;;;;;;;35.10;36.90;;;;;;4903880;29;20047;-87
2021/09/18 13:25:55;;;;;;;;;;;;;;;;;;;;;
2021/09/18 13:28:47;;;;;;;9.00;4.97;;;36.70;35.90;;;;;;4903914;29;20123;-87
2021/09/18 13:31:36;;;;;;;7.80;4.03;;;37.50;34.90;;;;;;4903314;29;20051;-88
2021/09/18 13:34:12;;;;;;;7.45;3.92;;;37.60;33.00;;;;;;4910895;29;20040;-88
2021/09/18 13:36:38;;;;;;;7.25;3.83;;;37.70;33.10;;;;;;4925831;29;20373;-87
2021/09/18 13:39:07;;;;;;;8.02;4.22;;;37.20;31.80;;;;;;4923243;29;20055;-87
2021/09/18 13:42:03;;;;;;;7.65;4.03;;;36.50;31.60;;;;;;4924460;29;20568;-88
2021/09/18 13:44:53;;;;;;;7.47;4.00;;;35.70;31.50;;;;;;4903753;29;20128;-87
2021/09/18 13:47:19;;;;;;;6.53;3.38;;;34.60;31.50;;;;;;4877112;29;20064;-87
2021/09/18 14:05:31;;;;;;;4.97;2.80;;;38.60;32.10;;;;;;4923526;24;20057;-85
2021/09/18 14:07:59;;;;;;;4.68;2.60;;;38.90;31.70;;;;;;4871182;29;20036;-86
2021/09/18 14:25:13;;;;;;;;;;;;;;;;;;;;;
2021/09/18 14:51:26;;;;;;;3.67;2.30;;;35.90;28.00;;;;;;5473329;23;20060;-88
2021/09/18 14:54:30;;;;;;;4.45;2.30;;;34.90;28.00;;;;;;4906571;29;20032;-86
2021/09/18 15:46:33;;;;;;;4.07;2.60;;;33.90;30.80;;;;;;4944338;29;20056;-89
2021/09/18 16:42:17;;;;;;;6.32;2.70;;;27.50;33.70;;;;;;3468844;23;21896;-87
2021/09/18 16:45:39;;;;;;;;;;;;;;;;;;;;;
2021/09/18 16:52:46;;;;;;;;;;;;;;;;;;;;;
2021/09/18 17:32:33;;;;;;;5.13;2.67;;;21.90;39.00;;;;;;5809484;23;20049;-93
2021/09/18 17:35:11;;;;;;;5.68;2.80;;;21.70;39.30;;;;;;4914726;29;20118;-92
2021/09/18 17:47:31;;;;;;;9.68;3.88;;;20.70;40.30;;;;;;5210992;23;19948;-96
2021/09/18 17:49:59;;;;;;;9.30;4.70;;;20.50;41.10;;;;;;4878593;29;20031;-93
2021/09/18 17:53:17;;;;;;;8.48;4.13;;;20.30;41.40;;;;;;4878196;29;20100;-93
2021/09/18 17:56:20;;;;;;;7.97;3.90;;;20.10;42.00;;;;;;4903474;29;20100;-92
2021/09/18 17:58:57;;;;;;;8.20;3.78;;;19.90;42.30;;;;;;4872464;29;20123;-88
2021/09/18 18:01:38;;;;;;;7.45;4.00;;;19.70;42.70;;;;;;4891571;29;20071;-94
2021/09/18 18:04:04;;;;;;;9.50;5.20;;;19.60;43.20;;;;;;4881010;29;20033;-95
2021/09/18 18:06:30;;;;;;;8.07;4.53;;;19.40;43.70;;;;;;4899686;29;20048;-93
2021/09/18 18:08:57;;;;;;;8.15;4.18;;;19.40;44.20;;;;;;4881702;29;20028;-95
2021/09/18 18:11:25;;;;;;;7.90;4.10;;;19.40;44.40;;;;;;4882352;29;20043;-96
2021/09/18 18:13:52;;;;;;;9.57;4.45;;;19.40;44.60;;;;;;4899767;29;20029;-96
2021/09/18 18:16:18;;;;;;;9.30;4.38;;;19.20;44.70;;;;;;4865575;29;20060;-96
2021/09/18 18:18:48;;;;;;;8.25;4.00;;;19.10;44.90;;;;;;4889376;29;20052;-86
2021/09/18 18:21:13;;;;;;;8.10;4.30;;;19.00;45.40;;;;;;4899877;29;20033;-84
2021/09/18 18:23:39;;;;;;;8.93;5.35;;;18.90;45.80;;;;;;4867447;29;20029;-96
2021/09/18 18:26:05;;;;;;;9.20;5.32;;;18.80;46.10;;;;;;4868688;29;20131;-96
2021/09/18 18:28:32;;;;;;;10.93;5.65;;;18.60;46.20;;;;;;4879779;29;20056;-96
2021/09/18 18:30:59;;;;;;;9.15;5.15;;;18.50;46.70;;;;;;4913344;29;20040;-95
2021/09/18 18:33:25;;;;;;;9.45;5.60;;;18.40;47.20;;;;;;4865672;29;20033;-96
2021/09/18 18:36:17;;;;;;;9.85;5.50;;;18.30;47.50;;;;;;4884695;29;20060;-96
2021/09/18 18:38:44;;;;;;;9.30;5.15;;;18.20;48.00;;;;;;4903807;29;20025;-96
2021/09/18 18:41:55;;;;;;;9.20;5.43;;;18.10;48.30;;;;;;4902861;29;20033;-89
2021/09/18 18:45:12;;;;;;;10.75;6.50;;;18.00;48.60;;;;;;4915736;29;20080;-94
2021/09/18 18:55:17;;;;;;;10.85;5.97;;;17.50;49.30;;;;;;4924849;29;20101;-95
2021/09/18 18:57:43;;;;;;;9.95;6.00;;;17.40;49.90;;;;;;4892020;29;20477;-94
2021/09/18 19:00:12;;;;;;;9.48;5.65;;;17.20;50.20;;;;;;4878044;29;20028;-94
2021/09/18 19:02:38;;;;;;;9.75;5.75;;;17.10;50.70;;;;;;4876251;29;20029;-92
2021/09/18 19:05:04;;;;;;;9.57;5.30;;;17.10;51.30;;;;;;4860553;29;20047;-94
2021/09/18 19:07:30;;;;;;;9.30;5.45;;;17.00;51.40;;;;;;4876509;29;20036;-93
2021/09/18 19:09:58;;;;;;;9.00;5.25;;;17.00;51.60;;;;;;4892112;29;20028;-91
2021/09/18 19:12:24;;;;;;;9.80;5.38;;;16.90;51.90;;;;;;4891920;29;20040;-94
2021/09/18 19:14:51;;;;;;;9.45;5.50;;;16.90;52.10;;;;;;4877198;29;20057;-93
2021/09/18 19:17:17;;;;;;;9.40;5.50;;;16.80;52.40;;;;;;4876604;29;20035;-94
2021/09/18 19:19:43;;;;;;;10.25;5.93;;;16.70;52.50;;;;;;4892187;29;20024;-94
2021/09/18 19:22:10;;;;;;;11.15;6.13;;;16.60;52.70;;;;;;4892975;29;20037;-93
2021/09/18 19:24:35;;;;;;;11.48;6.15;;;16.60;53.70;;;;;;4876022;29;20029;-91
2021/09/18 19:27:01;;;;;;;11.05;6.45;;;16.50;53.40;;;;;;4891538;29;20040;-92
2021/09/18 19:29:27;;;;;;;11.15;6.65;;;16.50;54.00;;;;;;4891975;29;20064;-92
2021/09/18 19:31:53;;;;;;;9.80;5.90;;;16.40;53.90;;;;;;4877558;29;20031;-92
2021/09/18 19:34:20;;;;;;;10.48;5.97;;;16.30;54.10;;;;;;4891914;29;20032;-92
2021/09/18 19:36:46;;;;;;;10.40;6.03;;;16.30;54.50;;;;;;4873003;29;20029;-93
2021/09/18 19:39:11;;;;;;;9.70;6.07;;;16.20;54.60;;;;;;4874071;29;20041;-93
2021/09/18 19:41:37;;;;;;;10.00;5.82;;;16.20;54.80;;;;;;4883835;29;20029;-94
2021/09/18 19:44:03;;;;;;;10.13;6.22;;;16.10;55.00;;;;;;4873681;29;20020;-90
2021/09/18 19:46:29;;;;;;;10.27;6.30;;;16.00;55.20;;;;;;4895297;29;20049;-93
2021/09/18 19:48:56;;;;;;;9.65;6.03;;;15.90;55.40;;;;;;4908646;29;20039;-94
2021/09/18 19:51:23;;;;;;;11.63;6.72;;;15.90;55.70;;;;;;4887209;29;20035;-94
2021/09/18 19:53:50;;;;;;;10.55;6.65;;;15.80;56.00;;;;;;4909178;29;20032;-94
2021/09/18 19:56:16;;;;;;;11.15;6.43;;;15.70;56.20;;;;;;4896959;29;20032;-94
2021/09/18 19:58:41;;;;;;;11.90;7.45;;;15.60;56.40;;;;;;4911563;29;20471;-93
2021/09/18 20:01:09;;;;;;;10.48;6.85;;;15.60;56.60;;;;;;4893428;29;20032;-92
2021/09/18 20:03:36;;;;;;;11.02;6.88;;;15.50;56.90;;;;;;4895058;29;20033;-94
2021/09/18 20:06:05;;;;;;;11.70;6.35;;;15.50;57.10;;;;;;4895121;29;20437;-94
2021/09/18 20:08:34;;;;;;;10.88;6.45;;;15.40;57.40;;;;;;4910859;29;20036;-94
2021/09/18 20:11:00;;;;;;;11.35;7.68;;;15.40;57.70;;;;;;4893573;29;20052;-93
2021/09/18 20:13:25;;;;;;;11.82;8.07;;;15.30;57.90;;;;;;4908931;29;20024;-94
2021/09/18 20:15:51;;;;;;;12.70;8.40;;;15.30;58.10;;;;;;4894188;29;20071;-95
2021/09/18 20:18:17;;;;;;;11.40;7.10;;;15.20;58.30;;;;;;4907617;29;20028;-94
2021/09/18 20:20:43;;;;;;;10.20;6.82;;;15.20;58.40;;;;;;4899724;29;20024;-94
2021/09/18 20:23:09;;;;;;;11.23;6.97;;;15.10;58.60;;;;;;4871967;29;20028;-94
2021/09/18 20:25:37;;;;;;;10.70;7.32;;;15.00;58.80;;;;;;4870765;29;20378;-96
2021/09/18 20:28:03;;;;;;;11.15;7.50;;;15.00;59.10;;;;;;4899745;29;20048;-90
2021/09/18 20:30:29;;;;;;;11.07;7.65;;;14.90;59.20;;;;;;4882056;29;20052;-90
2021/09/18 20:32:55;;;;;;;12.55;8.05;;;14.90;59.40;;;;;;4881619;29;20072;-90
2021/09/18 20:35:22;;;;;;;12.05;7.57;;;14.80;59.60;;;;;;4880794;29;20032;-92
2021/09/18 20:37:47;;;;;;;12.88;7.78;;;14.80;59.70;;;;;;4898573;29;20103;-94
2021/09/18 20:40:13;;;;;;;12.20;7.63;;;14.70;59.90;;;;;;4886336;29;20127;-96
2021/09/18 20:42:39;;;;;;;10.48;7.32;;;14.70;60.10;;;;;;4901960;29;20539;-93
2021/09/18 20:45:06;;;;;;;13.05;7.70;;;14.60;60.40;;;;;;4875106;29;20507;-93
2021/09/18 20:47:31;;;;;;;11.02;7.30;;;14.50;60.80;;;;;;4875113;29;20052;-93
2021/09/18 20:49:58;;;;;;;13.07;7.70;;;14.50;61.10;;;;;;4874829;29;20058;-91
2021/09/18 20:52:23;;;;;;;11.63;7.80;;;14.50;61.30;;;;;;4876858;29;20535;-92
2021/09/18 20:54:49;;;;;;;13.32;7.72;;;14.50;61.50;;;;;;4891711;29;20056;-91
2021/09/18 20:57:15;;;;;;;11.23;7.35;;;14.50;61.60;;;;;;4882670;29;20120;-91
2021/09/18 20:59:45;;;;;;;13.90;8.57;;;14.40;61.60;;;;;;4867236;29;20032;-91
2021/09/18 21:04:45;;;;;;;11.77;7.85;;;14.30;62.00;;;;;;4908019;29;20071;-89
2021/09/18 21:07:11;;;;;;;11.95;8.50;;;14.30;62.10;;;;;;4904104;29;20037;-90
2021/09/18 21:09:37;;;;;;;11.63;8.50;;;14.20;62.20;;;;;;4900464;29;20028;-91
2021/09/18 21:12:06;;;;;;;12.18;7.90;;;14.20;62.40;;;;;;4883129;29;20039;-91
2021/09/18 21:14:33;;;;;;;12.05;8.13;;;14.10;62.50;;;;;;4882416;29;20442;-91
2021/09/18 21:16:59;;;;;;;11.57;7.90;;;14.00;62.60;;;;;;4867218;29;20124;-91
2021/09/18 21:19:25;;;;;;;11.60;8.35;;;14.00;62.80;;;;;;4899663;29;20060;-91
2021/09/18 21:21:51;;;;;;;11.40;8.35;;;13.90;63.00;;;;;;4882654;29;20111;-91
2021/09/18 21:24:18;;;;;;;11.23;8.32;;;13.90;63.20;;;;;;4882232;29;20028;-91
2021/09/18 21:26:44;;;;;;;12.00;8.27;;;13.80;63.40;;;;;;4882040;29;20457;-92
2021/09/18 21:29:11;;;;;;;11.73;8.13;;;13.80;63.60;;;;;;4882321;29;20028;-92
2021/09/18 21:31:37;;;;;;;13.00;8.82;;;13.80;63.80;;;;;;4881376;29;20035;-88
2021/09/18 21:34:03;;;;;;;11.60;8.57;;;13.70;63.90;;;;;;4884011;29;20123;-88
2021/09/18 21:36:30;;;;;;;12.30;8.43;;;13.60;64.00;;;;;;4894167;29;20047;-88
2021/09/18 21:38:56;;;;;;;11.43;7.97;;;13.50;64.00;;;;;;4900210;29;20028;-88
2021/09/18 21:41:22;;;;;;;12.40;9.07;;;13.50;64.20;;;;;;4915644;29;20075;-88
2021/09/18 21:43:48;;;;;;;14.18;8.48;;;13.50;64.40;;;;;;4900131;29;20036;-88
2021/09/18 21:46:13;;;;;;;12.00;8.60;;;13.40;64.50;;;;;;4911305;29;20052;-89
2021/09/18 21:48:40;;;;;;;13.15;8.43;;;13.30;64.60;;;;;;4898480;29;20040;-93
2021/09/18 21:51:06;;;;;;;13.27;8.45;;;13.30;64.80;;;;;;4866735;29;20071;-92
2021/09/18 21:53:32;;;;;;;12.38;9.00;;;13.30;65.00;;;;;;4885410;29;20029;-92
2021/09/18 21:55:58;;;;;;;12.35;8.98;;;13.20;65.00;;;;;;4870379;29;20037;-93
2021/09/18 21:58:23;;;;;;;12.10;9.13;;;13.10;65.10;;;;;;4870356;29;20044;-92
2021/09/18 22:01:16;;;;;;;12.70;9.80;;;13.10;65.30;;;;;;4870807;29;20056;-92
2021/09/18 22:03:42;;;;;;;13.05;9.20;;;13.10;65.70;;;;;;4885538;29;20056;-92
2021/09/18 22:06:08;;;;;;;13.00;9.02;;;13.00;65.50;;;;;;4870071;29;20025;-92
2021/09/18 22:08:33;;;;;;;11.98;9.00;;;13.00;65.70;;;;;;4870238;29;20068;-93
2021/09/18 22:10:59;;;;;;;12.50;8.85;;;12.90;65.80;;;;;;4870302;29;20545;-91
2021/09/18 22:13:25;;;;;;;13.75;9.05;;;12.90;65.90;;;;;;4870003;29;20037;-91
2021/09/18 22:15:51;;;;;;;12.60;9.02;;;12.80;66.10;;;;;;4870210;29;20104;-92
2021/09/18 22:18:17;;;;;;;12.32;8.35;;;12.80;66.30;;;;;;4870947;29;20056;-92
2021/09/18 22:20:42;;;;;;;13.15;8.80;;;12.80;66.40;;;;;;4870020;29;20063;-90
2021/09/18 22:23:08;;;;;;;13.80;8.48;;;12.80;66.40;;;;;;4869327;29;20039;-90
2021/09/18 22:25:34;;;;;;;13.73;9.35;;;12.70;66.50;;;;;;4901561;29;20108;-90
2021/09/18 22:27:59;;;;;;;13.57;9.02;;;12.70;66.70;;;;;;4869989;29;20043;-93
2021/09/18 22:30:25;;;;;;;13.27;9.13;;;12.60;66.70;;;;;;4901836;29;20115;-94
2021/09/18 22:32:51;;;;;;;13.63;11.05;;;12.50;66.80;;;;;;4869882;29;20028;-92
2021/09/18 22:35:17;;;;;;;12.43;8.93;;;12.50;66.90;;;;;;4869946;29;20036;-92
2021/09/18 22:37:43;;;;;;;13.57;9.50;;;12.60;67.10;;;;;;4866675;29;20037;-92
2021/09/18 22:40:09;;;;;;;14.45;9.90;;;12.50;67.20;;;;;;4882836;29;20029;-92
2021/09/18 22:42:34;;;;;;;13.27;10.02;;;12.40;67.20;;;;;;4881894;29;20146;-92
2021/09/18 22:45:00;;;;;;;14.68;9.80;;;12.30;67.40;;;;;;4866655;29;20065;-92
2021/09/18 22:47:25;;;;;;;14.63;10.23;;;12.40;67.50;;;;;;4896354;29;20056;-94
2021/09/18 22:49:51;;;;;;;12.65;9.25;;;12.30;67.60;;;;;;4884850;29;20040;-95
2021/09/18 22:52:17;;;;;;;14.52;10.63;;;12.30;67.70;;;;;;4869183;29;20033;-94
2021/09/18 22:54:42;;;;;;;12.38;9.15;;;12.30;67.90;;;;;;4900247;29;20021;-94
2021/09/18 22:57:08;;;;;;;14.77;10.48;;;12.20;68.00;;;;;;4853946;29;20071;-93
2021/09/18 22:59:34;;;;;;;13.80;9.88;;;12.10;68.10;;;;;;4899929;29;20489;-92
2021/09/18 23:02:00;;;;;;;14.35;10.60;;;12.10;68.40;;;;;;4869465;29;20032;-92
2021/09/18 23:04:26;;;;;;;15.13;10.90;;;12.10;68.20;;;;;;4868484;29;20063;-93
2021/09/18 23:06:52;;;;;;;14.60;10.07;;;12.00;68.20;;;;;;4883726;29;20047;-93
2021/09/18 23:09:17;;;;;;;13.25;9.98;;;12.00;68.40;;;;;;4899727;29;20033;-93
2021/09/18 23:11:43;;;;;;;14.05;10.82;;;12.00;68.50;;;;;;4868911;29;20222;-93
2021/09/18 23:14:09;;;;;;;14.60;10.18;;;12.00;68.80;;;;;;4899792;29;20064;-91
2021/09/18 23:16:35;;;;;;;15.05;11.30;;;11.90;68.80;;;;;;4899618;29;20040;-92
2021/09/18 23:19:00;;;;;;;15.95;11.50;;;11.90;68.80;;;;;;4899720;29;20478;-92
2021/09/18 23:21:26;;;;;;;14.70;10.07;;;11.80;68.90;;;;;;4899649;29;20029;-93
2021/09/18 23:23:52;;;;;;;15.20;10.93;;;11.80;69.00;;;;;;4899718;29;20076;-92
2021/09/18 23:26:19;;;;;;;14.10;10.43;;;11.80;69.10;;;;;;4868384;29;20056;-91
2021/09/18 23:28:51;;;;;;;13.35;10.20;;;11.80;69.20;;;;;;4899668;29;20052;-94
2021/09/18 23:31:17;;;;;;;14.48;10.95;;;11.70;69.30;;;;;;4899174;29;20080;-94
2021/09/18 23:33:43;;;;;;;16.50;11.20;;;11.70;69.30;;;;;;4899558;29;20033;-93
2021/09/18 23:36:08;;;;;;;15.52;10.93;;;11.60;69.30;;;;;;4902127;29;20476;-93
2021/09/18 23:38:34;;;;;;;14.13;10.57;;;11.60;69.60;;;;;;4902472;29;20104;-93
2021/09/18 23:41:00;;;;;;;14.23;10.75;;;11.60;69.60;;;;;;4886780;29;20032;-93
2021/09/18 23:43:25;;;;;;;13.90;10.23;;;11.60;69.60;;;;;;4886727;29;20469;-93
2021/09/18 23:45:51;;;;;;;15.10;11.07;;;11.50;69.70;;;;;;4868535;29;20071;-93
2021/09/18 23:48:16;;;;;;;16.77;11.77;;;11.50;69.80;;;;;;4867947;29;20131;-94
2021/09/18 23:50:42;;;;;;;17.75;11.88;;;11.50;69.80;;;;;;4883711;29;20119;-93
2021/09/18 23:53:08;;;;;;;16.05;10.35;;;11.40;69.80;;;;;;4883872;29;20028;-93
2021/09/18 23:55:33;;;;;;;13.75;10.25;;;11.40;69.90;;;;;;4883654;29;20038;-95
2021/09/18 23:57:59;;;;;;;15.57;11.32;;;11.40;70.10;;;;;;4883657;29;20029;-95
